Time;durP1;ratioP1;P1;durP2;ratioP2;P2;SDS_P1;SDS_P2;PMS_P1;PMS_P2;Temp;Humidity;BMP_temperature;BMP_pressure;BME280_temperature;BME280_humidity;BME280_pressure;Samples;Min_cycle;Max_cycle;Signal;HPM_P1;HPM_P2
2022/04/01 00:00:51;;;;;;;28.50;14.82;;;;;;;13.20;83.16;96830.44;4232754;33;33873;-81
2022/04/01 00:03:19;;;;;;;22.62;15.15;;;;;;;13.39;82.06;96836.25;4233494;33;35930;-81
2022/04/01 00:05:47;;;;;;;27.58;14.38;;;;;;;13.37;82.28;96837.28;4232892;33;34364;-81
2022/04/01 00:08:14;;;;;;;26.02;15.52;;;;;;;12.98;83.86;96836.16;4233432;33;33770;-80
2022/04/01 00:10:43;;;;;;;27.20;16.05;;;;;;;13.06;83.74;96821.69;4231707;33;33855;-81
2022/04/01 00:13:12;;;;;;;29.30;15.02;;;;;;;13.21;82.60;96832.97;4233241;33;34944;-80
2022/04/01 00:15:40;;;;;;;24.23;14.98;;;;;;;12.76;85.28;96832.25;4231329;33;34189;-81
2022/04/01 00:18:08;;;;;;;26.00;14.25;;;;;;;13.36;82.57;96833.84;4243776;33;33561;-80
2022/04/01 00:20:37;;;;;;;26.60;14.05;;;;;;;13.48;80.88;96839.22;4232702;33;33677;-81
2022/04/01 00:23:04;;;;;;;26.50;14.75;;;;;;;12.98;83.39;96831.78;4231486;33;36671;-80
2022/04/01 00:25:33;;;;;;;24.67;14.52;;;;;;;13.18;83.03;96834.94;4232563;33;34641;-81
2022/04/01 00:28:00;;;;;;;22.83;13.90;;;;;;;13.24;82.33;96830.16;4231405;33;33845;-81
2022/04/01 00:30:28;;;;;;;24.55;14.87;;;;;;;13.18;82.74;96824.47;4232559;33;34851;-81
2022/04/01 00:32:56;;;;;;;25.77;15.10;;;;;;;12.97;83.97;96824.03;4233364;33;34941;-80
2022/04/01 00:35:25;;;;;;;28.33;16.17;;;;;;;12.63;86.64;96821.66;4232442;33;35177;-80
2022/04/01 00:37:53;;;;;;;27.90;14.60;;;;;;;12.80;85.31;96820.66;4233438;33;33766;-81
2022/04/01 00:40:22;;;;;;;30.08;16.73;;;;;;;12.85;85.01;96813.41;4232351;33;34371;-80
2022/04/01 00:42:50;;;;;;;29.83;17.52;;;;;;;12.82;85.38;96818.78;4232367;33;35305;-81
2022/04/01 00:45:17;;;;;;;30.17;17.20;;;;;;;13.35;83.27;96815.63;4232464;33;34595;-81
2022/04/01 00:47:46;;;;;;;30.23;16.40;;;;;;;12.92;84.04;96811.25;4233209;33;34448;-80
2022/04/01 00:50:13;;;;;;;29.33;16.37;;;;;;;12.46;87.50;96801.81;4242719;33;34859;-80
2022/04/01 00:52:44;;;;;;;33.88;16.80;;;;;;;12.19;89.64;96804.25;4233172;33;36038;-80
2022/04/01 00:55:13;;;;;;;29.70;16.70;;;;;;;12.62;87.31;96814.78;4232510;33;34458;-81
2022/04/01 00:57:40;;;;;;;34.47;17.20;;;;;;;12.63;86.78;96811.22;4233145;33;33744;-80
2022/04/01 01:00:09;;;;;;;27.73;15.48;;;;;;;12.94;85.52;96809.38;4231493;33;34740;-81
2022/04/01 01:02:41;;;;;;;32.65;16.45;;;;;;;12.94;85.11;96808.56;4243402;33;35203;-80
2022/04/01 01:05:10;;;;;;;33.13;16.75;;;;;;;12.93;84.93;96807.69;4232274;33;34476;-80
2022/04/01 01:07:42;;;;;;;30.62;15.98;;;;;;;12.80;84.96;96810.22;4233056;33;33796;-79
2022/04/01 01:10:10;;;;;;;33.60;17.35;;;;;;;12.68;86.35;96818.78;4231081;33;34658;-80
2022/04/01 01:12:41;;;;;;;28.05;15.02;;;;;;;12.54;87.21;96816.16;4231679;33;35043;-80
2022/04/01 01:15:11;;;;;;;31.00;16.25;;;;;;;12.66;86.36;96821.50;4242443;33;35155;-81
2022/04/01 01:17:40;;;;;;;31.27;16.33;;;;;;;12.71;86.33;96819.44;4232163;33;33833;-80
2022/04/01 01:20:12;;;;;;;55.17;19.05;;;;;;;12.82;85.74;96816.19;4231839;33;33801;-80
2022/04/01 01:22:42;;;;;;;40.15;17.10;;;;;;;13.00;84.64;96821.22;4232844;33;34911;-80
2022/04/01 01:25:12;;;;;;;36.88;15.77;;;;;;;12.93;84.42;96812.91;4231985;33;34489;-81
2022/04/01 01:27:42;;;;;;;42.35;16.70;;;;;;;13.11;84.29;96818.78;4231298;33;33852;-81
2022/04/01 01:30:11;;;;;;;27.95;17.25;;;;;;;13.33;81.50;96823.56;4231916;33;34748;-80
2022/04/01 01:32:39;;;;;;;34.00;16.23;;;;;;;12.81;84.91;96813.66;4232708;33;34960;-80
2022/04/01 01:35:08;;;;;;;34.00;16.37;;;;;;;13.46;81.16;96816.66;4230758;33;35319;-80
2022/04/01 01:37:37;;;;;;;31.95;16.20;;;;;;;13.61;80.39;96814.00;4243055;33;33557;-80
2022/04/01 01:40:06;;;;;;;32.97;15.55;;;;;;;13.26;81.80;96809.19;4231182;33;34056;-80
2022/04/01 01:42:34;;;;;;;32.35;17.65;;;;;;;13.04;83.29;96810.50;4218512;34;35921;-80
2022/04/01 01:45:02;;;;;;;35.05;17.02;;;;;;;12.67;85.55;96807.50;4218296;33;35029;-80
2022/04/01 01:47:31;;;;;;;32.08;15.60;;;;;;;12.92;84.29;96816.47;4232636;33;33621;-80
2022/04/01 01:55:32;;;;;;;38.03;18.75;;;;;;;12.65;86.22;96819.81;4224499;33;34276;-80
2022/04/01 01:58:01;;;;;;;37.33;17.30;;;;;;;12.62;86.32;96809.56;4232649;33;33795;-80
2022/04/01 02:00:29;;;;;;;31.10;16.45;;;;;;;12.70;86.07;96806.47;4231675;33;33903;-80
2022/04/01 02:02:58;;;;;;;28.33;15.60;;;;;;;13.09;83.61;96802.38;4231084;33;34734;-80
2022/04/01 02:05:26;;;;;;;42.70;15.57;;;;;;;13.00;84.23;96806.38;4231713;33;35295;-81
2022/04/01 02:07:54;;;;;;;32.13;14.87;;;;;;;12.96;84.37;96807.50;4242636;33;33625;-80
2022/04/01 02:10:22;;;;;;;29.23;15.55;;;;;;;12.81;85.13;96813.66;4231516;33;33981;-80
2022/04/01 02:12:50;;;;;;;43.92;15.90;;;;;;;12.92;84.19;96808.66;4232124;33;35064;-80
2022/04/01 02:15:18;;;;;;;28.90;16.62;;;;;;;12.82;84.71;96805.75;4231271;33;34459;-81
2022/04/01 02:17:46;;;;;;;25.98;14.95;;;;;;;12.80;85.40;96801.56;4231219;33;33829;-80
2022/04/01 02:20:14;;;;;;;53.25;16.25;;;;;;;12.89;84.89;96798.38;4241643;33;34025;-80
2022/04/01 02:22:44;;;;;;;33.42;15.70;;;;;;;12.49;86.88;96795.53;4216968;34;34824;-80
2022/04/01 02:25:12;;;;;;;31.48;16.48;;;;;;;13.60;80.94;96799.22;4218143;33;34355;-80
2022/04/01 02:27:42;;;;;;;29.45;15.23;;;;;;;13.06;83.07;96807.81;4230669;33;34358;-81
2022/04/01 02:30:10;;;;;;;28.48;15.40;;;;;;;12.61;85.79;96797.44;4242212;33;33426;-80
2022/04/01 02:32:41;;;;;;;25.37;14.70;;;;;;;12.74;85.28;96781.88;4231294;33;33713;-80
2022/04/01 02:35:10;;;;;;;28.45;15.88;;;;;;;12.98;83.78;96778.69;4232421;33;34956;-81
2022/04/01 02:37:39;;;;;;;31.27;15.02;;;;;;;13.20;82.96;96770.34;4231684;33;33886;-80
2022/04/01 02:40:09;;;;;;;27.87;14.80;;;;;;;13.44;81.02;96768.81;4233052;33;34450;-80
2022/04/01 02:42:38;;;;;;;34.17;14.27;;;;;;;13.64;79.90;96766.72;4232232;33;35158;-80
2022/04/01 02:45:07;;;;;;;32.95;13.75;;;;;;;12.74;83.93;96781.88;4234195;33;34512;-80
2022/04/01 02:47:35;;;;;;;40.08;14.15;;;;;;;12.61;85.61;96771.31;4233354;33;33751;-80
2022/04/01 02:50:05;;;;;;;25.30;14.20;;;;;;;12.44;87.06;96784.53;4234246;33;34066;-80
2022/04/01 02:52:33;;;;;;;36.35;14.55;;;;;;;12.86;85.63;96769.81;4231567;33;33722;-80
2022/04/01 02:55:01;;;;;;;28.90;13.57;;;;;;;13.07;83.05;96776.34;4234220;33;35288;-80
2022/04/01 02:57:31;;;;;;;22.52;13.45;;;;;;;12.84;84.12;96776.94;4232044;33;33909;-80
2022/04/01 02:59:59;;;;;;;24.65;14.18;;;;;;;13.21;82.40;96775.47;4233224;33;33686;-80
2022/04/01 03:02:27;;;;;;;25.02;14.40;;;;;;;12.66;85.23;96774.50;4232186;33;33871;-80
2022/04/01 03:04:58;;;;;;;21.90;14.05;;;;;;;12.56;86.50;96762.09;4234065;33;34404;-80
2022/04/01 03:07:26;;;;;;;23.25;14.25;;;;;;;12.59;86.65;96760.13;4233227;33;33804;-80
2022/04/01 03:09:54;;;;;;;22.95;13.55;;;;;;;12.72;86.31;96757.59;4233430;33;33911;-80
2022/04/01 03:12:22;;;;;;;24.15;13.90;;;;;;;12.79;85.70;96761.53;4232954;33;34660;-80
2022/04/01 03:14:56;;;;;;;25.42;13.80;;;;;;;12.65;86.75;96771.97;4233180;33;34605;-80
2022/04/01 03:17:30;;;;;;;21.85;13.07;;;;;;;12.64;86.37;96792.03;4233083;33;33879;-81
2022/04/01 03:19:59;;;;;;;21.08;12.90;;;;;;;12.64;86.60;96785.97;4233952;33;34797;-87
2022/04/01 03:22:28;;;;;;;23.85;14.55;;;;;;;12.88;85.37;96791.47;4219696;33;34229;-81
2022/04/01 03:24:56;;;;;;;23.10;12.90;;;;;;;13.12;84.25;96773.44;4232084;33;34548;-79
2022/04/01 03:27:24;;;;;;;21.55;13.02;;;;;;;13.54;80.86;96760.41;4233001;33;33353;-81
2022/04/01 03:29:52;;;;;;;24.70;12.25;;;;;;;13.34;81.94;96756.44;4233097;33;33966;-81
2022/04/01 03:32:20;;;;;;;17.73;12.27;;;;;;;13.52;80.86;96757.03;4232675;33;35729;-81
2022/04/01 03:34:48;;;;;;;19.85;12.35;;;;;;;13.20;82.08;96768.59;4233580;33;34534;-81
2022/04/01 03:37:16;;;;;;;25.52;12.75;;;;;;;13.02;84.10;96770.59;4232928;33;33875;-81
2022/04/01 03:39:45;;;;;;;19.42;12.60;;;;;;;13.62;81.05;96779.06;4233386;33;33950;-81
2022/04/01 03:42:14;;;;;;;19.98;12.37;;;;;;;13.65;79.96;96769.22;4231721;33;34904;-82
2022/04/01 03:44:42;;;;;;;18.42;12.13;;;;;;;13.74;79.73;96775.66;4232832;33;34654;-81
2022/04/01 03:47:17;;;;;;;20.88;12.23;;;;;;;13.36;81.22;96778.94;4231690;33;34543;-81
2022/04/01 03:49:51;;;;;;;20.98;11.65;;;;;;;12.70;84.79;96770.75;4233647;33;33798;-81
2022/04/01 03:52:21;;;;;;;17.25;10.95;;;;;;;12.63;85.96;96777.28;4232753;33;35963;-81
2022/04/01 03:54:50;;;;;;;21.23;11.27;;;;;;;12.49;87.03;96777.28;4233310;33;34511;-81
2022/04/01 03:57:25;;;;;;;17.37;10.38;;;;;;;13.39;82.33;96778.72;4231601;33;33863;-82
2022/04/01 03:59:59;;;;;;;15.65;10.88;;;;;;;13.00;83.31;96776.81;4243266;33;33725;-81
2022/04/01 04:02:28;;;;;;;16.10;10.23;;;;;;;12.65;85.73;96780.66;4232690;33;34761;-80
2022/04/01 04:04:56;;;;;;;18.70;11.45;;;;;;;12.85;84.69;96778.63;4243519;33;35309;-80
2022/04/01 04:07:25;;;;;;;20.67;12.27;;;;;;;12.96;84.93;96776.16;4242866;33;33313;-81
2022/04/01 04:09:53;;;;;;;21.85;11.57;;;;;;;12.75;84.95;96777.50;4233389;33;33980;-81
2022/04/01 04:12:22;;;;;;;21.12;11.80;;;;;;;12.59;86.26;96777.56;4231458;33;35067;-81
2022/04/01 04:14:53;;;;;;;18.67;11.52;;;;;;;12.68;86.40;96767.41;4233311;33;34575;-82
2022/04/01 04:17:36;;;;;;;17.48;10.80;;;;;;;13.30;82.46;96747.94;4232626;33;33750;-82
2022/04/01 04:20:09;;;;;;;17.12;11.27;;;;;;;12.87;84.59;96745.41;4232567;33;33897;-81
2022/04/01 04:23:00;;;;;;;19.67;12.57;;;;;;;12.89;84.34;96739.13;4232488;33;35201;-76
2022/04/01 04:25:34;;;;;;;28.45;11.45;;;;;;;12.46;87.63;96746.16;4233193;33;34651;-81
2022/04/01 04:28:08;;;;;;;20.88;9.98;;;;;;;12.57;86.70;96743.72;4231608;33;33601;-82
2022/04/01 04:30:49;;;;;;;27.23;10.98;;;;;;;12.48;87.33;96749.50;4232352;33;34740;-77
2022/04/01 04:33:23;;;;;;;64.03;11.70;;;;;;;12.45;87.46;96747.91;4231917;33;36897;-77
2022/04/01 04:35:51;;;;;;;49.92;12.37;;;;;;;12.46;87.47;96751.38;4232008;33;33066;-86
2022/04/01 04:38:23;;;;;;;22.13;11.95;;;;;;;12.48;87.55;96759.94;4243254;33;32985;-86
2022/04/01 04:40:52;;;;;;;23.90;12.15;;;;;;;12.59;86.49;96762.75;4231967;33;34677;-86
2022/04/01 04:43:23;;;;;;;24.08;11.55;;;;;;;12.30;88.46;96756.63;4232659;33;32951;-82
2022/04/01 04:45:52;;;;;;;18.80;11.88;;;;;;;12.39;88.83;96765.69;4233052;33;34589;-85
2022/04/01 04:48:20;;;;;;;20.42;11.52;;;;;;;12.39;87.81;96765.69;4231427;33;34526;-78
2022/04/01 04:50:49;;;;;;;26.20;12.32;;;;;;;12.74;86.34;96770.56;4232343;33;34806;-83
2022/04/01 04:53:19;;;;;;;21.05;12.15;;;;;;;12.55;87.35;96771.69;4219916;33;34668;-80
2022/04/01 04:55:49;;;;;;;21.27;11.68;;;;;;;12.27;88.72;96777.72;4230762;33;33842;-81
2022/04/01 04:58:18;;;;;;;19.05;11.73;;;;;;;12.31;88.69;96772.22;4232470;33;34535;-80
2022/04/01 05:00:53;;;;;;;18.17;11.32;;;;;;;12.39;88.12;96765.69;4233183;33;34063;-80
2022/04/01 05:03:30;;;;;;;16.58;10.50;;;;;;;12.91;85.47;96762.56;4232204;33;36023;-80
2022/04/01 05:06:01;;;;;;;15.90;9.82;;;;;;;13.32;81.59;96769.59;4233122;33;35136;-84
2022/04/01 05:08:55;;;;;;;17.48;9.77;;;;;;;12.83;83.00;96780.44;4218094;34;34406;-84
2022/04/01 05:11:41;;;;;;;17.42;10.30;;;;;;;12.40;85.11;96783.06;4220804;33;33993;-84
2022/04/01 05:14:26;;;;;;;16.52;8.98;;;;;;;12.50;84.89;96779.78;4241423;33;36020;-87
2022/04/01 05:17:00;;;;;;;17.00;9.05;;;;;;;12.64;84.32;96781.59;4230871;33;33950;-87
2022/04/01 05:19:36;;;;;;;12.20;7.32;;;;;;;12.42;85.25;96783.78;4232917;33;34123;-83
2022/04/01 05:22:06;;;;;;;14.95;7.60;;;;;;;12.57;84.41;96788.09;4230773;33;34191;-86
2022/04/01 05:24:52;;;;;;;12.85;6.12;;;;;;;12.81;82.03;96787.53;4243308;33;35156;-87
2022/04/01 05:27:24;;;;;;;11.52;6.18;;;;;;;12.12;84.56;96789.88;4231830;33;35221;-74
2022/04/01 05:30:13;;;;;;;15.35;7.87;;;;;;;12.01;86.10;96787.06;4229588;33;33663;-73
2022/04/01 05:33:09;;;;;;;12.73;7.03;;;;;;;11.98;86.51;96787.22;4231063;33;34433;-72
2022/04/01 05:35:41;;;;;;;15.98;7.35;;;;;;;11.30;90.17;96780.56;4232407;33;34990;-73
2022/04/01 05:38:10;;;;;;;11.85;6.80;;;;;;;11.56;88.55;96782.56;4242409;33;34481;-72
2022/04/01 05:40:39;;;;;;;8.55;4.87;;;;;;;12.11;84.93;96780.38;4242707;33;33591;-72
2022/04/01 05:43:07;;;;;;;8.70;4.60;;;;;;;11.06;89.07;96782.72;4242109;33;34717;-72
2022/04/01 05:45:38;;;;;;;6.97;4.47;;;;;;;11.36;87.45;96780.22;4232493;33;34216;-72
2022/04/01 05:48:12;;;;;;;7.62;3.97;;;;;;;11.26;88.40;96781.62;4241739;33;34510;-73
2022/04/01 05:50:41;;;;;;;6.80;4.15;;;;;;;11.17;90.19;96777.78;4230914;33;33225;-71
2022/04/01 05:53:10;;;;;;;6.43;3.80;;;;;;;11.10;88.74;96786.84;4230689;33;33847;-72
2022/04/01 05:55:39;;;;;;;6.78;3.92;;;;;;;11.13;88.22;96789.28;4242565;33;35966;-72
2022/04/01 05:58:08;;;;;;;9.15;4.65;;;;;;;11.36;87.70;96790.63;4241573;33;34548;-71
2022/04/01 06:01:02;;;;;;;9.70;4.60;;;;;;;11.63;85.14;96800.44;4242571;33;34392;-76
2022/04/01 06:03:33;;;;;;;9.50;5.22;;;;;;;10.84;89.43;96798.66;4240382;33;33997;-73
2022/04/01 06:06:14;;;;;;;11.75;4.25;;;;;;;11.08;88.44;96794.75;4231454;33;35917;-73
2022/04/01 06:08:55;;;;;;;7.97;4.40;;;;;;;11.47;85.68;96788.28;4231768;33;34177;-73
2022/04/01 06:11:49;;;;;;;8.68;5.15;;;;;;;11.40;85.69;96781.75;4221440;33;33744;-73
2022/04/01 06:14:37;;;;;;;7.53;3.95;;;;;;;10.98;88.09;96777.94;4230471;33;32470;-74
2022/04/01 06:17:17;;;;;;;7.15;4.28;;;;;;;10.92;87.39;96780.84;4224047;33;35153;-73
2022/04/01 06:19:46;;;;;;;7.40;4.12;;;;;;;10.89;87.23;96786.22;4234126;33;34362;-73
2022/04/01 06:22:17;;;;;;;5.30;3.53;;;;;;;10.90;87.24;96774.91;4242959;33;34541;-73
2022/04/01 06:25:02;;;;;;;6.75;3.72;;;;;;;11.01;85.26;96777.75;4234449;33;34862;-73
2022/04/01 06:27:39;;;;;;;7.15;3.50;;;;;;;11.10;86.88;96779.88;4232321;33;35866;-73
2022/04/01 06:30:10;;;;;;;9.15;4.45;;;;;;;11.09;86.46;96786.00;4233019;33;34561;-74
2022/04/01 06:32:50;;;;;;;12.88;5.78;;;;;;;11.10;86.19;96785.09;4229665;33;35413;-74
2022/04/01 06:35:29;;;;;;;11.88;5.80;;;;;;;11.12;87.15;96793.66;4233135;33;33922;-74
2022/04/01 06:38:02;;;;;;;15.05;6.78;;;;;;;11.48;84.50;96789.97;4223841;33;35037;-73
2022/04/01 06:40:56;;;;;;;16.50;6.65;;;;;;;11.90;82.58;96793.72;4220226;34;34760;-73
2022/04/01 06:43:25;;;;;;;17.45;7.65;;;;;;;12.07;81.88;96795.38;4241194;33;33711;-72
2022/04/01 06:46:08;;;;;;;18.85;7.15;;;;;;;12.28;79.83;96800.25;4233962;33;34015;-73
2022/04/01 06:48:36;;;;;;;17.92;7.30;;;;;;;11.43;85.24;96796.34;4233315;33;35952;-72
2022/04/01 06:51:13;;;;;;;15.80;7.00;;;;;;;11.35;87.24;96799.41;4232689;33;35278;-73
2022/04/01 06:54:08;;;;;;;14.82;6.95;;;;;;;11.98;84.06;96798.50;4220037;33;33088;-72
2022/04/01 06:56:42;;;;;;;13.57;6.62;;;;;;;11.90;85.05;96801.53;4232311;33;32473;-72
2022/04/01 06:59:10;;;;;;;13.98;6.47;;;;;;;11.57;86.91;96799.03;4232977;33;34836;-72
2022/04/01 07:01:39;;;;;;;5.18;3.05;;;;;;;12.26;84.07;96797.72;4231946;33;34529;-72
2022/04/01 07:04:07;;;;;;;4.95;2.90;;;;;;;12.27;82.37;96790.75;4233122;33;34395;-72
2022/04/01 07:06:36;;;;;;;3.90;2.40;;;;;;;11.44;87.49;96787.63;4233214;33;33957;-72
2022/04/01 07:09:05;;;;;;;5.20;2.75;;;;;;;11.63;82.79;96797.84;4231982;33;34852;-71
2022/04/01 07:11:34;;;;;;;4.40;2.42;;;;;;;10.35;87.71;96802.03;4233262;33;35179;-71
2022/04/01 07:14:02;;;;;;;4.00;2.28;;;;;;;10.79;86.78;96804.94;4221456;33;34584;-71
2022/04/01 07:16:31;;;;;;;6.65;3.00;;;;;;;10.44;86.63;96805.00;4239426;33;34071;-76
2022/04/01 07:18:59;;;;;;;4.90;2.92;;;;;;;9.98;88.08;96812.47;4232801;33;35187;-75
2022/04/01 07:21:27;;;;;;;4.40;2.78;;;;;;;10.17;87.17;96804.59;4232852;33;34162;-76
2022/04/01 07:23:55;;;;;;;6.40;3.40;;;;;;;9.72;90.53;96813.72;4243657;33;34342;-75
2022/04/01 07:26:24;;;;;;;6.10;3.58;;;;;;;9.74;90.16;96817.13;4243356;33;33547;-76
2022/04/01 07:28:52;;;;;;;5.70;3.17;;;;;;;9.81;88.48;96820.25;4243531;33;35021;-76
2022/04/01 07:34:43;;;;;;;4.70;2.90;;;;;;;10.02;87.91;96816.63;4228623;33;33602;-75
2022/04/01 07:37:12;;;;;;;6.85;3.40;;;;;;;9.94;86.55;96802.31;4220728;33;34763;-81
2022/04/01 07:40:01;;;;;;;6.18;3.83;;;;;;;9.67;87.57;96806.16;4233521;33;36038;-74
2022/04/01 07:42:29;;;;;;;5.85;3.58;;;;;;;9.51;88.70;96810.38;4219376;33;34123;-75
2022/04/01 07:44:57;;;;;;;5.45;3.42;;;;;;;9.45;88.86;96815.87;4232505;33;32782;-75
2022/04/01 07:47:25;;;;;;;6.37;3.53;;;;;;;9.28;89.20;96825.31;4231831;33;33818;-75
2022/04/01 07:49:53;;;;;;;6.15;3.35;;;;;;;9.82;87.16;96827.12;4233503;33;35038;-75
2022/04/01 07:52:22;;;;;;;6.00;3.45;;;;;;;9.77;86.55;96818.72;4232724;33;34600;-76
2022/04/01 07:54:50;;;;;;;4.25;2.95;;;;;;;9.63;87.33;96825.41;4233528;33;33672;-75
2022/04/01 07:57:19;;;;;;;7.47;3.03;;;;;;;9.57;87.58;96820.50;4231676;33;33891;-74
2022/04/01 07:59:47;;;;;;;4.45;2.95;;;;;;;9.00;90.23;96830.06;4231372;33;34984;-74
2022/04/01 08:02:16;;;;;;;7.45;3.30;;;;;;;8.98;90.13;96827.53;4231503;33;35259;-76
2022/04/01 08:04:45;;;;;;;5.72;3.10;;;;;;;9.28;88.26;96835.69;4233510;33;34548;-75
2022/04/01 08:07:16;;;;;;;5.57;3.20;;;;;;;9.32;89.26;96835.53;4232972;33;34011;-74
2022/04/01 08:09:44;;;;;;;5.05;2.92;;;;;;;9.24;89.96;96839.34;4232400;33;35131;-74
2022/04/01 08:12:13;;;;;;;4.87;3.17;;;;;;;9.03;91.77;96842.91;4231591;33;35349;-75
2022/04/01 08:14:41;;;;;;;7.95;3.17;;;;;;;8.89;92.60;96848.69;4233281;33;33707;-75
2022/04/01 08:17:12;;;;;;;6.60;3.67;;;;;;;9.15;92.37;96847.53;4232662;33;34030;-75
2022/04/01 08:19:41;;;;;;;7.62;3.08;;;;;;;9.21;90.60;96849.88;4233474;33;35152;-73
2022/04/01 08:22:09;;;;;;;5.18;3.30;;;;;;;9.35;90.44;96848.38;4231733;33;35122;-74
2022/04/01 08:24:37;;;;;;;8.02;3.95;;;;;;;9.55;88.73;96848.31;4243977;33;33862;-75
2022/04/01 08:27:06;;;;;;;7.00;3.12;;;;;;;9.61;88.59;96853.22;4232608;33;35080;-75
2022/04/01 08:29:36;;;;;;;5.12;3.40;;;;;;;9.54;87.19;96857.00;4230263;33;35672;-75
2022/04/01 08:32:06;;;;;;;5.47;3.28;;;;;;;9.24;89.12;96859.28;4241622;33;34428;-74
2022/04/01 08:34:35;;;;;;;6.00;3.35;;;;;;;8.75;90.93;96866.63;4231003;33;33852;-75
2022/04/01 08:37:06;;;;;;;5.47;3.72;;;;;;;9.09;89.32;96871.19;4232470;33;33906;-74
2022/04/01 08:39:34;;;;;;;6.57;3.60;;;;;;;9.27;87.94;96874.72;4231568;33;34477;-74
2022/04/01 08:42:04;;;;;;;7.57;3.67;;;;;;;9.08;87.56;96869.50;4242698;33;34699;-74
2022/04/01 08:44:32;;;;;;;6.62;3.80;;;;;;;9.01;88.50;96875.87;4231884;33;34346;-75
2022/04/01 08:47:00;;;;;;;7.82;4.55;;;;;;;9.19;86.74;96879.41;4220268;33;33901;-75
2022/04/01 08:49:28;;;;;;;7.82;3.47;;;;;;;8.90;88.71;96884.97;4231493;33;34127;-75
2022/04/01 08:51:56;;;;;;;7.85;4.25;;;;;;;9.22;86.50;96898.28;4232176;33;35094;-76
2022/04/01 08:54:24;;;;;;;5.72;3.30;;;;;;;8.58;88.65;96898.47;4232177;33;33692;-75
2022/04/01 08:56:53;;;;;;;9.23;3.83;;;;;;;8.98;86.55;96902.78;4232972;33;33772;-75
2022/04/01 08:59:27;;;;;;;6.05;3.25;;;;;;;8.95;87.15;96904.69;4231417;33;35876;-75
2022/04/01 09:02:06;;;;;;;6.43;3.55;;;;;;;8.77;89.92;96907.19;4232970;33;35179;-75
2022/04/01 09:04:34;;;;;;;6.03;3.28;;;;;;;8.91;87.73;96899.66;4231696;33;33179;-74
2022/04/01 09:07:16;;;;;;;4.90;2.85;;;;;;;8.81;90.33;96902.72;4231672;33;34661;-74
2022/04/01 09:09:43;;;;;;;6.97;3.58;;;;;;;9.14;86.16;96905.59;4231478;33;35868;-74
2022/04/01 09:12:16;;;;;;;7.60;3.75;;;;;;;9.12;87.77;96907.37;4232004;33;34630;-74
2022/04/01 09:14:51;;;;;;;5.40;3.22;;;;;;;9.06;87.45;96903.31;4218617;34;33700;-74
2022/04/01 09:17:20;;;;;;;5.62;3.37;;;;;;;9.43;86.48;96903.44;4218959;33;34015;-74
2022/04/01 09:20:05;;;;;;;5.78;3.30;;;;;;;9.34;86.02;96906.44;4231541;33;35991;-74
2022/04/01 09:22:34;;;;;;;5.12;3.30;;;;;;;9.23;85.99;96905.19;4228650;33;35163;-74
2022/04/01 09:25:08;;;;;;;6.20;3.45;;;;;;;8.92;86.61;96911.69;4231386;33;33688;-73
2022/04/01 09:27:49;;;;;;;6.68;3.20;;;;;;;9.40;83.38;96911.34;4230705;33;34051;-72
2022/04/01 09:30:18;;;;;;;6.43;3.25;;;;;;;8.86;85.72;96917.16;4229792;33;35183;-72
2022/04/01 09:32:48;;;;;;;6.12;3.60;;;;;;;8.62;87.35;96915.59;4231635;33;34471;-72
2022/04/01 09:35:19;;;;;;;4.60;2.90;;;;;;;8.48;86.72;96914.41;4232083;33;34556;-72
2022/04/01 09:37:50;;;;;;;5.68;3.00;;;;;;;8.65;85.24;96913.72;4230809;33;34007;-72
2022/04/01 09:40:21;;;;;;;7.00;3.80;;;;;;;8.91;85.19;96911.75;4231543;33;34463;-72
2022/04/01 09:42:51;;;;;;;7.55;4.05;;;;;;;8.31;88.21;96916.81;4222260;33;33948;-72
2022/04/01 09:45:31;;;;;;;7.25;3.90;;;;;;;8.65;86.67;96921.50;4233050;33;35261;-72
2022/04/01 09:48:05;;;;;;;7.12;3.85;;;;;;;8.91;86.04;96920.41;4233303;33;34774;-72
2022/04/01 09:50:40;;;;;;;7.80;4.00;;;;;;;8.70;85.98;96923.88;4232804;33;35371;-71
2022/04/01 09:53:16;;;;;;;6.68;4.30;;;;;;;8.46;86.50;96923.19;4232314;33;34491;-72
2022/04/01 09:55:49;;;;;;;8.68;4.43;;;;;;;8.74;84.64;96922.88;4244643;33;33825;-72
2022/04/01 09:58:20;;;;;;;8.63;4.87;;;;;;;8.64;87.52;96919.81;4242430;33;32201;-73
2022/04/01 10:00:49;;;;;;;8.82;5.28;;;;;;;8.60;87.52;96931.22;4233081;33;35939;-72
2022/04/01 10:03:19;;;;;;;8.63;4.82;;;;;;;8.75;88.03;96921.94;4232465;33;34145;-72
2022/04/01 10:05:47;;;;;;;9.77;5.65;;;;;;;8.22;90.30;96924.97;4234203;33;34537;-72
2022/04/01 10:08:15;;;;;;;10.80;5.25;;;;;;;8.01;91.60;96932.69;4230809;33;33775;-71
2022/04/01 10:10:47;;;;;;;10.75;5.87;;;;;;;8.07;91.71;96926.44;4233512;33;35144;-72
2022/04/01 10:13:21;;;;;;;13.73;7.53;;;;;;;8.18;91.64;96933.78;4233175;33;34054;-72
2022/04/01 10:15:50;;;;;;;12.75;7.15;;;;;;;8.46;90.75;96934.38;4232581;33;32603;-72
2022/04/01 10:18:41;;;;;;;14.30;6.95;;;;;;;8.50;88.57;96935.94;4232745;33;34846;-72
2022/04/01 10:21:10;;;;;;;12.60;7.12;;;;;;;8.39;88.92;96948.47;4232926;33;35064;-72
2022/04/01 10:23:44;;;;;;;13.15;6.37;;;;;;;8.21;89.29;96950.06;4232203;33;35402;-72
2022/04/01 10:26:14;;;;;;;12.40;5.90;;;;;;;8.18;87.73;96954.53;4233046;33;34393;-72
2022/04/01 10:28:46;;;;;;;11.55;6.85;;;;;;;8.29;86.94;96960.13;4232265;33;34511;-72
2022/04/01 10:31:20;;;;;;;16.25;7.53;;;;;;;8.54;86.17;96963.47;4232239;33;35767;-72
2022/04/01 10:33:49;;;;;;;13.15;7.25;;;;;;;8.41;87.04;96970.00;4233974;33;33682;-72
2022/04/01 10:36:26;;;;;;;12.45;6.72;;;;;;;8.44;86.47;96971.69;4234034;33;34504;-72
2022/04/01 10:39:05;;;;;;;13.55;7.70;;;;;;;8.82;84.04;96975.28;4220137;34;33355;-72
2022/04/01 10:41:34;;;;;;;12.35;7.40;;;;;;;8.40;85.61;96973.53;4230420;33;35191;-71
2022/04/01 10:44:03;;;;;;;14.38;7.87;;;;;;;8.68;85.59;96977.59;4232870;33;34714;-72
2022/04/01 10:46:31;;;;;;;15.35;7.37;;;;;;;8.40;85.26;96980.44;4233248;33;33597;-72
2022/04/01 10:52:11;;;;;;;16.27;7.78;;;;;;;9.13;82.99;96986.12;4233328;33;35856;-73
2022/04/01 10:54:44;;;;;;;12.85;7.70;;;;;;;8.57;87.09;96985.00;4233221;33;35371;-72
2022/04/01 10:57:35;;;;;;;11.23;6.62;;;;;;;9.18;84.25;96987.62;4232036;33;33823;-73
2022/04/01 11:00:12;;;;;;;12.68;6.95;;;;;;;8.77;85.02;96990.22;4227016;33;33875;-73
2022/04/01 11:02:42;;;;;;;12.80;6.87;;;;;;;9.05;83.37;96989.03;4233204;33;35921;-73
2022/04/01 11:05:25;;;;;;;11.73;7.12;;;;;;;8.44;86.14;96988.06;4232701;33;33942;-72
2022/04/01 11:08:16;;;;;;;12.48;7.20;;;;;;;8.42;86.95;96987.28;4231258;33;34621;-74
2022/04/01 11:11:06;;;;;;;14.73;8.07;;;;;;;8.54;87.38;96993.72;4233697;33;33982;-74
2022/04/01 11:13:37;;;;;;;12.77;7.28;;;;;;;8.83;86.22;96989.94;4229797;33;36007;-73
2022/04/01 11:16:13;;;;;;;13.27;7.32;;;;;;;8.91;85.19;96998.25;4220475;33;34613;-73
2022/04/01 11:19:14;;;;;;;12.25;7.22;;;;;;;9.17;83.72;96998.91;4233142;33;33867;-74
2022/04/01 11:21:44;;;;;;;14.27;7.95;;;;;;;8.71;84.87;97003.41;4233190;33;33814;-73
2022/04/01 11:24:33;;;;;;;9.93;5.93;;;;;;;8.97;83.57;96998.91;4231182;33;34404;-72
2022/04/01 11:27:06;;;;;;;13.40;7.62;;;;;;;9.04;82.92;96993.41;4230473;33;34507;-72
2022/04/01 11:29:35;;;;;;;12.80;8.15;;;;;;;8.82;81.97;96996.03;4232951;33;33829;-72
2022/04/01 11:32:09;;;;;;;12.70;7.75;;;;;;;9.07;82.22;96989.81;4232727;33;33342;-73
2022/04/01 11:35:08;;;;;;;13.38;8.55;;;;;;;8.57;84.90;96987.59;4230107;33;35194;-72
2022/04/01 11:37:41;;;;;;;15.73;8.70;;;;;;;8.16;87.41;96993.47;4225681;33;34375;-73
2022/04/01 11:40:16;;;;;;;13.10;7.62;;;;;;;8.05;88.03;96999.06;4232221;33;33687;-73
2022/04/01 11:42:57;;;;;;;12.45;7.68;;;;;;;8.37;86.77;96986.59;4232829;33;34983;-73
2022/04/01 11:45:27;;;;;;;12.98;7.50;;;;;;;8.54;86.51;96988.53;4218334;34;35197;-73
2022/04/01 11:47:56;;;;;;;13.62;7.97;;;;;;;8.47;87.36;96992.28;4225786;33;34455;-73
2022/04/01 11:50:25;;;;;;;12.10;7.28;;;;;;;8.19;88.43;96990.78;4232318;33;34636;-73
2022/04/01 11:52:56;;;;;;;10.27;6.35;;;;;;;8.27;89.76;96985.28;4230567;33;33801;-74
2022/04/01 11:55:29;;;;;;;14.63;7.80;;;;;;;8.83;87.84;96989.94;4220701;33;35977;-73
2022/04/01 11:57:59;;;;;;;13.52;6.93;;;;;;;8.41;86.58;96993.34;4242909;33;34484;-73
2022/04/01 12:00:28;;;;;;;14.57;8.07;;;;;;;8.56;87.77;96981.56;4232657;33;33832;-73